Oxford, FL

10:09 PM EST on January 23, 2017 (GMT -0500)
Oxford | | Change Station
Active Advisory: Small Craft Advisory

Elev 79 ft 28.95 °N, 82.02 °W | Updated 8 seconds ago

Clear
Clear
58.8 °F
Feels Like 58.8 °F
N
3.4
Wind Variable Wind from WSW
Gusts 4.9 mph

Today
High -- | Low -- °F
--% Chance of Precip.
Yesterday
High -- | Low -- °F
Precip. -- in
Pressure 29.72 in
Visibility 10.0 miles
Clouds Clear
Dew Point 56 °F
Humidity 92%
Rainfall 0.14 in
Snow Depth Not available.
7:20 AM 5:59 PM
Waning Crescent, 14% visible
METAR KLEE 240253Z AUTO 28006KT 10SM CLR 16/12 A2972 RMK AO2 SLP062 T01560117 51031
Pressure 29.72 in
Visibility 10.0 miles
Clouds Clear
Dew Point 56 °F
Humidity 92%
Rainfall 0.14 in
Snow Depth Not available.
7:20 AM 5:59 PM
Waning Crescent, 14% visible
METAR KLEE 240253Z AUTO 28006KT 10SM CLR 16/12 A2972 RMK AO2 SLP062 T01560117 51031

Get Your Daily Forecast Email!

Thanks for signing up!

Be on the lookout for a verification email in your inbox.

You'll start receiving the daily forecast at 8 AM.

×

10-Day Weather Forecast

Almanac

Astronomy

Jan. 23, 2017 Rise Set
Actual Time
Civil Twilight
Nautical Twilight
Astronomical Twilight
Moon
Length of Visible Light
Length of Day
Tomorrow will be .
, % of the Moon is Illuminated

Today's Extremes

State Highs State Lows

Community

WunderPhotos

Upload Photos

1,962,540 photos uploaded!

WunderBlog® & News

Nearby

Air Quality

  Air Quality AQ Index Pollutant
Not available.

Snow Depth

Station Depth Elevation

Earthquake Activity

City Distance Mag. Time & Date
Minimum magnitude displayed is 2.5.

Coastal Water Temperatures

Place Temperature

Stations

Nearby Weather Stations

Station Location Temp. Windchill Dew Point Humidity Wind Precip. Elev Updated Type
                   

Watches & Warnings

Small Craft Advisory
Issued: 7:23 PM EST Jan. 23, 2017 – National Weather Service

... Small Craft Advisory remains in effect until 4 am EST
Tuesday...
... Gale Warning has expired...

* winds... 20 to 25 knots with gusts to around 30
knots... decreasing to 15 to 20 knots overnight.

* Waves/seas... rough decreasing to a moderate chop by morning.

Precautionary/preparedness actions...

Precautionary/preparedness actions...

A Small Craft Advisory means that wind speeds of 21 to 33 knots
are expected to produce hazardous wave conditions to small craft.
Inexperienced mariners... especially those operating smaller
vessels should avoid navigating in these conditions.




Http://www.Weather.Gov/Tampa